sensor_id;sensor_type;location;lat;lon;timestamp;P1;durP1;ratioP1;P2;durP2;ratioP2
15764;SDS011;7983;50.744;7.086;2023-05-07T00:01:38;3.53;;;3.15;;
15764;SDS011;7983;50.744;7.086;2023-05-07T00:04:04;3.58;;;2.95;;
15764;SDS011;7983;50.744;7.086;2023-05-07T00:06:32;4.75;;;3.20;;
15764;SDS011;7983;50.744;7.086;2023-05-07T00:08:58;3.33;;;2.83;;
15764;SDS011;7983;50.744;7.086;2023-05-07T00:11:24;2.92;;;2.60;;
15764;SDS011;7983;50.744;7.086;2023-05-07T00:13:52;2.70;;;2.42;;
15764;SDS011;7983;50.744;7.086;2023-05-07T00:16:20;2.97;;;2.33;;
15764;SDS011;7983;50.744;7.086;2023-05-07T00:18:48;2.55;;;2.30;;
15764;SDS011;7983;50.744;7.086;2023-05-07T00:21:16;4.28;;;2.47;;
15764;SDS011;7983;50.744;7.086;2023-05-07T00:23:44;2.88;;;2.40;;
15764;SDS011;7983;50.744;7.086;2023-05-07T00:26:09;3.10;;;2.17;;
15764;SDS011;7983;50.744;7.086;2023-05-07T00:28:35;2.60;;;2.10;;
15764;SDS011;7983;50.744;7.086;2023-05-07T00:31:03;2.67;;;2.42;;
15764;SDS011;7983;50.744;7.086;2023-05-07T00:33:29;3.47;;;2.30;;
15764;SDS011;7983;50.744;7.086;2023-05-07T00:35:54;3.38;;;2.63;;
15764;SDS011;7983;50.744;7.086;2023-05-07T00:38:20;3.10;;;2.58;;
15764;SDS011;7983;50.744;7.086;2023-05-07T00:40:45;3.30;;;2.58;;
15764;SDS011;7983;50.744;7.086;2023-05-07T00:43:11;2.58;;;2.30;;
15764;SDS011;7983;50.744;7.086;2023-05-07T00:45:37;2.85;;;2.55;;
15764;SDS011;7983;50.744;7.086;2023-05-07T00:48:08;3.63;;;3.00;;
15764;SDS011;7983;50.744;7.086;2023-05-07T00:50:33;3.10;;;2.45;;
15764;SDS011;7983;50.744;7.086;2023-05-07T00:52:59;3.88;;;2.50;;
15764;SDS011;7983;50.744;7.086;2023-05-07T00:55:32;2.90;;;2.55;;
15764;SDS011;7983;50.744;7.086;2023-05-07T00:57:57;3.10;;;2.55;;
15764;SDS011;7983;50.744;7.086;2023-05-07T01:00:25;4.45;;;2.90;;
15764;SDS011;7983;50.744;7.086;2023-05-07T01:02:51;4.75;;;3.60;;
15764;SDS011;7983;50.744;7.086;2023-05-07T01:05:18;4.80;;;3.00;;
15764;SDS011;7983;50.744;7.086;2023-05-07T01:07:45;3.78;;;3.15;;
15764;SDS011;7983;50.744;7.086;2023-05-07T01:10:12;4.72;;;3.20;;
15764;SDS011;7983;50.744;7.086;2023-05-07T01:12:38;3.20;;;2.88;;
15764;SDS011;7983;50.744;7.086;2023-05-07T01:15:05;2.95;;;2.65;;
15764;SDS011;7983;50.744;7.086;2023-05-07T01:17:35;2.65;;;2.45;;
15764;SDS011;7983;50.744;7.086;2023-05-07T01:20:04;2.88;;;2.50;;
15764;SDS011;7983;50.744;7.086;2023-05-07T01:22:33;3.75;;;2.72;;
15764;SDS011;7983;50.744;7.086;2023-05-07T01:25:05;3.17;;;2.70;;
15764;SDS011;7983;50.744;7.086;2023-05-07T01:27:34;6.25;;;2.63;;
15764;SDS011;7983;50.744;7.086;2023-05-07T01:30:01;2.50;;;2.28;;
15764;SDS011;7983;50.744;7.086;2023-05-07T01:35:03;3.08;;;2.78;;
15764;SDS011;7983;50.744;7.086;2023-05-07T01:37:32;2.88;;;2.58;;
15764;SDS011;7983;50.744;7.086;2023-05-07T01:39:58;3.55;;;2.60;;
15764;SDS011;7983;50.744;7.086;2023-05-07T01:42:25;2.58;;;2.28;;
15764;SDS011;7983;50.744;7.086;2023-05-07T01:44:54;2.78;;;2.58;;
15764;SDS011;7983;50.744;7.086;2023-05-07T01:47:20;2.92;;;2.47;;
15764;SDS011;7983;50.744;7.086;2023-05-07T01:49:46;5.05;;;2.70;;
15764;SDS011;7983;50.744;7.086;2023-05-07T01:52:12;3.40;;;2.90;;
15764;SDS011;7983;50.744;7.086;2023-05-07T01:54:38;3.05;;;2.50;;
15764;SDS011;7983;50.744;7.086;2023-05-07T01:57:06;2.83;;;2.60;;
15764;SDS011;7983;50.744;7.086;2023-05-07T01:59:31;3.17;;;2.53;;
15764;SDS011;7983;50.744;7.086;2023-05-07T02:01:59;3.80;;;3.03;;
15764;SDS011;7983;50.744;7.086;2023-05-07T02:04:25;3.70;;;3.05;;
15764;SDS011;7983;50.744;7.086;2023-05-07T02:06:53;4.72;;;2.88;;
15764;SDS011;7983;50.744;7.086;2023-05-07T02:09:21;3.25;;;2.55;;
15764;SDS011;7983;50.744;7.086;2023-05-07T02:11:48;3.13;;;2.83;;
15764;SDS011;7983;50.744;7.086;2023-05-07T02:14:14;4.57;;;3.10;;
15764;SDS011;7983;50.744;7.086;2023-05-07T02:16:42;2.92;;;2.63;;
15764;SDS011;7983;50.744;7.086;2023-05-07T02:19:08;3.30;;;2.78;;
15764;SDS011;7983;50.744;7.086;2023-05-07T02:21:33;4.30;;;2.88;;
15764;SDS011;7983;50.744;7.086;2023-05-07T02:24:04;3.58;;;3.13;;
15764;SDS011;7983;50.744;7.086;2023-05-07T02:26:32;3.58;;;3.15;;
15764;SDS011;7983;50.744;7.086;2023-05-07T02:28:58;3.38;;;2.85;;
15764;SDS011;7983;50.744;7.086;2023-05-07T02:31:24;3.40;;;2.95;;
15764;SDS011;7983;50.744;7.086;2023-05-07T02:33:50;3.45;;;2.97;;
15764;SDS011;7983;50.744;7.086;2023-05-07T02:36:16;3.25;;;2.90;;
15764;SDS011;7983;50.744;7.086;2023-05-07T02:38:43;3.40;;;2.80;;
15764;SDS011;7983;50.744;7.086;2023-05-07T02:41:09;3.58;;;2.92;;
15764;SDS011;7983;50.744;7.086;2023-05-07T02:43:35;3.83;;;3.08;;
15764;SDS011;7983;50.744;7.086;2023-05-07T02:46:04;3.40;;;3.08;;
15764;SDS011;7983;50.744;7.086;2023-05-07T02:48:33;3.50;;;3.20;;
15764;SDS011;7983;50.744;7.086;2023-05-07T02:51:01;3.38;;;2.97;;
15764;SDS011;7983;50.744;7.086;2023-05-07T02:53:27;3.25;;;2.95;;
15764;SDS011;7983;50.744;7.086;2023-05-07T02:55:55;5.43;;;3.10;;
15764;SDS011;7983;50.744;7.086;2023-05-07T02:58:22;3.65;;;2.70;;
15764;SDS011;7983;50.744;7.086;2023-05-07T03:00:50;3.78;;;3.38;;
15764;SDS011;7983;50.744;7.086;2023-05-07T03:03:17;4.13;;;2.88;;
15764;SDS011;7983;50.744;7.086;2023-05-07T03:05:45;5.40;;;3.03;;
15764;SDS011;7983;50.744;7.086;2023-05-07T03:08:10;3.65;;;3.30;;
15764;SDS011;7983;50.744;7.086;2023-05-07T03:10:36;3.22;;;2.53;;
15764;SDS011;7983;50.744;7.086;2023-05-07T03:13:02;3.17;;;2.70;;
15764;SDS011;7983;50.744;7.086;2023-05-07T03:15:30;3.90;;;2.80;;
15764;SDS011;7983;50.744;7.086;2023-05-07T03:17:56;4.50;;;2.65;;
15764;SDS011;7983;50.744;7.086;2023-05-07T03:20:24;3.33;;;2.85;;
15764;SDS011;7983;50.744;7.086;2023-05-07T03:22:49;4.28;;;3.30;;
15764;SDS011;7983;50.744;7.086;2023-05-07T03:25:17;3.35;;;3.05;;
15764;SDS011;7983;50.744;7.086;2023-05-07T03:27:43;5.28;;;3.08;;
15764;SDS011;7983;50.744;7.086;2023-05-07T03:30:08;4.50;;;3.40;;
15764;SDS011;7983;50.744;7.086;2023-05-07T03:32:35;3.08;;;2.75;;
15764;SDS011;7983;50.744;7.086;2023-05-07T03:35:01;3.80;;;2.85;;
15764;SDS011;7983;50.744;7.086;2023-05-07T03:37:27;3.50;;;3.03;;
15764;SDS011;7983;50.744;7.086;2023-05-07T03:39:57;3.00;;;2.47;;
15764;SDS011;7983;50.744;7.086;2023-05-07T03:42:23;2.88;;;2.58;;
15764;SDS011;7983;50.744;7.086;2023-05-07T03:44:49;3.75;;;2.92;;
15764;SDS011;7983;50.744;7.086;2023-05-07T03:47:17;3.65;;;2.60;;
15764;SDS011;7983;50.744;7.086;2023-05-07T03:49:42;3.40;;;2.80;;
15764;SDS011;7983;50.744;7.086;2023-05-07T03:52:08;3.17;;;2.78;;
15764;SDS011;7983;50.744;7.086;2023-05-07T03:54:33;2.60;;;2.40;;
15764;SDS011;7983;50.744;7.086;2023-05-07T03:57:01;2.80;;;2.30;;
15764;SDS011;7983;50.744;7.086;2023-05-07T03:59:29;3.22;;;2.55;;
15764;SDS011;7983;50.744;7.086;2023-05-07T04:01:57;3.97;;;2.45;;
15764;SDS011;7983;50.744;7.086;2023-05-07T04:04:25;3.47;;;3.00;;
15764;SDS011;7983;50.744;7.086;2023-05-07T04:06:51;4.05;;;2.90;;
15764;SDS011;7983;50.744;7.086;2023-05-07T04:09:16;4.97;;;2.90;;
15764;SDS011;7983;50.744;7.086;2023-05-07T04:11:42;3.38;;;2.85;;
15764;SDS011;7983;50.744;7.086;2023-05-07T04:14:08;3.88;;;3.15;;
15764;SDS011;7983;50.744;7.086;2023-05-07T04:16:34;3.60;;;2.88;;
15764;SDS011;7983;50.744;7.086;2023-05-07T04:19:02;3.45;;;3.15;;
15764;SDS011;7983;50.744;7.086;2023-05-07T04:21:30;3.42;;;2.85;;
15764;SDS011;7983;50.744;7.086;2023-05-07T04:23:56;3.35;;;3.05;;
15764;SDS011;7983;50.744;7.086;2023-05-07T04:26:21;3.72;;;2.97;;
15764;SDS011;7983;50.744;7.086;2023-05-07T04:28:49;3.83;;;3.10;;
15764;SDS011;7983;50.744;7.086;2023-05-07T04:31:17;4.03;;;3.30;;
15764;SDS011;7983;50.744;7.086;2023-05-07T04:33:45;4.93;;;3.25;;
15764;SDS011;7983;50.744;7.086;2023-05-07T04:36:15;4.32;;;3.50;;
15764;SDS011;7983;50.744;7.086;2023-05-07T04:38:41;4.60;;;3.70;;
15764;SDS011;7983;50.744;7.086;2023-05-07T04:41:08;3.85;;;3.33;;
15764;SDS011;7983;50.744;7.086;2023-05-07T04:43:34;4.20;;;3.72;;
15764;SDS011;7983;50.744;7.086;2023-05-07T04:46:00;4.88;;;3.60;;
15764;SDS011;7983;50.744;7.086;2023-05-07T04:48:25;4.65;;;3.60;;
15764;SDS011;7983;50.744;7.086;2023-05-07T04:50:51;5.10;;;3.65;;
15764;SDS011;7983;50.744;7.086;2023-05-07T04:53:17;4.90;;;3.45;;
15764;SDS011;7983;50.744;7.086;2023-05-07T04:55:46;3.72;;;3.30;;
15764;SDS011;7983;50.744;7.086;2023-05-07T04:58:12;4.68;;;2.92;;
15764;SDS011;7983;50.744;7.086;2023-05-07T05:00:41;4.30;;;3.22;;
15764;SDS011;7983;50.744;7.086;2023-05-07T05:03:07;4.30;;;3.15;;
15764;SDS011;7983;50.744;7.086;2023-05-07T05:05:36;3.63;;;2.75;;
15764;SDS011;7983;50.744;7.086;2023-05-07T05:08:03;3.40;;;3.10;;
15764;SDS011;7983;50.744;7.086;2023-05-07T05:10:29;4.03;;;3.10;;
15764;SDS011;7983;50.744;7.086;2023-05-07T05:12:55;3.92;;;2.95;;
15764;SDS011;7983;50.744;7.086;2023-05-07T05:15:20;4.10;;;3.00;;
15764;SDS011;7983;50.744;7.086;2023-05-07T05:17:51;3.55;;;3.22;;
15764;SDS011;7983;50.744;7.086;2023-05-07T05:20:19;5.72;;;4.30;;
15764;SDS011;7983;50.744;7.086;2023-05-07T05:22:44;4.72;;;3.90;;
15764;SDS011;7983;50.744;7.086;2023-05-07T05:25:10;3.85;;;3.47;;
15764;SDS011;7983;50.744;7.086;2023-05-07T05:27:40;4.72;;;3.08;;
15764;SDS011;7983;50.744;7.086;2023-05-07T05:30:06;6.82;;;3.80;;
15764;SDS011;7983;50.744;7.086;2023-05-07T05:32:34;10.10;;;7.53;;
15764;SDS011;7983;50.744;7.086;2023-05-07T05:35:00;5.88;;;5.28;;
15764;SDS011;7983;50.744;7.086;2023-05-07T05:37:29;3.88;;;3.40;;
15764;SDS011;7983;50.744;7.086;2023-05-07T05:39:57;4.20;;;3.70;;
15764;SDS011;7983;50.744;7.086;2023-05-07T05:42:22;4.03;;;3.63;;
15764;SDS011;7983;50.744;7.086;2023-05-07T05:44:50;3.90;;;3.10;;
15764;SDS011;7983;50.744;7.086;2023-05-07T05:47:16;4.32;;;3.42;;
15764;SDS011;7983;50.744;7.086;2023-05-07T05:49:44;3.33;;;2.75;;
15764;SDS011;7983;50.744;7.086;2023-05-07T05:52:11;3.50;;;2.97;;
15764;SDS011;7983;50.744;7.086;2023-05-07T05:54:37;5.93;;;4.30;;
15764;SDS011;7983;50.744;7.086;2023-05-07T05:57:05;3.40;;;2.90;;
15764;SDS011;7983;50.744;7.086;2023-05-07T05:59:33;3.20;;;2.90;;
15764;SDS011;7983;50.744;7.086;2023-05-07T06:02:01;3.15;;;2.45;;
15764;SDS011;7983;50.744;7.086;2023-05-07T06:04:27;3.17;;;2.10;;
15764;SDS011;7983;50.744;7.086;2023-05-07T06:06:52;3.25;;;2.40;;
15764;SDS011;7983;50.744;7.086;2023-05-07T06:09:18;3.05;;;2.60;;
15764;SDS011;7983;50.744;7.086;2023-05-07T06:11:44;2.55;;;2.13;;
15764;SDS011;7983;50.744;7.086;2023-05-07T06:14:12;3.47;;;2.33;;
15764;SDS011;7983;50.744;7.086;2023-05-07T06:16:40;2.55;;;2.30;;
15764;SDS011;7983;50.744;7.086;2023-05-07T06:19:05;3.45;;;3.03;;
15764;SDS011;7983;50.744;7.086;2023-05-07T06:21:31;2.60;;;2.40;;
15764;SDS011;7983;50.744;7.086;2023-05-07T06:23:56;2.83;;;2.38;;
15764;SDS011;7983;50.744;7.086;2023-05-07T06:26:27;2.70;;;2.30;;
15764;SDS011;7983;50.744;7.086;2023-05-07T06:28:52;2.88;;;2.53;;
15764;SDS011;7983;50.744;7.086;2023-05-07T06:31:23;3.58;;;2.60;;
15764;SDS011;7983;50.744;7.086;2023-05-07T06:33:54;2.70;;;2.33;;
15764;SDS011;7983;50.744;7.086;2023-05-07T06:36:20;2.67;;;2.28;;
15764;SDS011;7983;50.744;7.086;2023-05-07T06:38:48;2.90;;;2.33;;
15764;SDS011;7983;50.744;7.086;2023-05-07T06:41:13;5.13;;;2.25;;
15764;SDS011;7983;50.744;7.086;2023-05-07T06:43:39;2.70;;;2.45;;
15764;SDS011;7983;50.744;7.086;2023-05-07T06:46:07;3.05;;;2.45;;
15764;SDS011;7983;50.744;7.086;2023-05-07T06:48:35;6.07;;;3.33;;
15764;SDS011;7983;50.744;7.086;2023-05-07T06:51:00;4.78;;;3.40;;
15764;SDS011;7983;50.744;7.086;2023-05-07T06:53:26;3.25;;;2.50;;
15764;SDS011;7983;50.744;7.086;2023-05-07T06:55:55;2.63;;;2.30;;
15764;SDS011;7983;50.744;7.086;2023-05-07T06:58:21;3.15;;;2.78;;
15764;SDS011;7983;50.744;7.086;2023-05-07T07:00:47;3.05;;;2.20;;
15764;SDS011;7983;50.744;7.086;2023-05-07T07:03:15;2.88;;;2.05;;
15764;SDS011;7983;50.744;7.086;2023-05-07T07:05:43;4.53;;;3.33;;
15764;SDS011;7983;50.744;7.086;2023-05-07T07:08:11;3.63;;;2.90;;
15764;SDS011;7983;50.744;7.086;2023-05-07T07:10:39;3.67;;;2.55;;
15764;SDS011;7983;50.744;7.086;2023-05-07T07:13:07;2.50;;;2.10;;
15764;SDS011;7983;50.744;7.086;2023-05-07T07:15:33;2.47;;;2.10;;
15764;SDS011;7983;50.744;7.086;2023-05-07T07:17:58;6.13;;;3.13;;
15764;SDS011;7983;50.744;7.086;2023-05-07T07:20:24;3.28;;;2.50;;
15764;SDS011;7983;50.744;7.086;2023-05-07T07:22:52;4.43;;;2.22;;
15764;SDS011;7983;50.744;7.086;2023-05-07T07:25:18;5.05;;;3.30;;
15764;SDS011;7983;50.744;7.086;2023-05-07T07:27:46;4.68;;;2.90;;
15764;SDS011;7983;50.744;7.086;2023-05-07T07:30:11;3.72;;;2.47;;
15764;SDS011;7983;50.744;7.086;2023-05-07T07:32:37;3.25;;;2.58;;
15764;SDS011;7983;50.744;7.086;2023-05-07T07:35:05;2.30;;;2.10;;
15764;SDS011;7983;50.744;7.086;2023-05-07T07:37:31;2.20;;;2.00;;
15764;SDS011;7983;50.744;7.086;2023-05-07T07:39:57;2.00;;;1.70;;
15764;SDS011;7983;50.744;7.086;2023-05-07T07:42:22;2.42;;;1.83;;
15764;SDS011;7983;50.744;7.086;2023-05-07T07:44:50;2.10;;;1.90;;
15764;SDS011;7983;50.744;7.086;2023-05-07T07:47:18;2.15;;;1.80;;
15764;SDS011;7983;50.744;7.086;2023-05-07T07:49:44;1.88;;;1.70;;
15764;SDS011;7983;50.744;7.086;2023-05-07T07:52:11;1.55;;;1.45;;
15764;SDS011;7983;50.744;7.086;2023-05-07T07:54:37;2.22;;;2.00;;
15764;SDS011;7983;50.744;7.086;2023-05-07T07:57:05;2.40;;;1.73;;
15764;SDS011;7983;50.744;7.086;2023-05-07T07:59:33;2.10;;;1.73;;
15764;SDS011;7983;50.744;7.086;2023-05-07T08:01:58;2.10;;;1.70;;
15764;SDS011;7983;50.744;7.086;2023-05-07T08:04:24;2.60;;;1.70;;
15764;SDS011;7983;50.744;7.086;2023-05-07T08:06:52;3.15;;;2.30;;
15764;SDS011;7983;50.744;7.086;2023-05-07T08:09:21;3.97;;;2.80;;
15764;SDS011;7983;50.744;7.086;2023-05-07T08:11:51;2.38;;;2.10;;
15764;SDS011;7983;50.744;7.086;2023-05-07T08:14:16;1.92;;;1.73;;
15764;SDS011;7983;50.744;7.086;2023-05-07T08:16:44;1.95;;;1.73;;
15764;SDS011;7983;50.744;7.086;2023-05-07T08:19:10;2.08;;;1.63;;
15764;SDS011;7983;50.744;7.086;2023-05-07T08:21:40;2.17;;;1.80;;
15764;SDS011;7983;50.744;7.086;2023-05-07T08:24:06;2.55;;;1.80;;
15764;SDS011;7983;50.744;7.086;2023-05-07T08:26:37;2.47;;;1.60;;
15764;SDS011;7983;50.744;7.086;2023-05-07T08:29:04;1.95;;;1.70;;
15764;SDS011;7983;50.744;7.086;2023-05-07T08:31:29;1.65;;;1.50;;
15764;SDS011;7983;50.744;7.086;2023-05-07T08:33:58;1.95;;;1.35;;
15764;SDS011;7983;50.744;7.086;2023-05-07T08:36:24;2.30;;;1.48;;
15764;SDS011;7983;50.744;7.086;2023-05-07T08:38:56;4.85;;;1.48;;
15764;SDS011;7983;50.744;7.086;2023-05-07T08:41:23;1.88;;;1.63;;
15764;SDS011;7983;50.744;7.086;2023-05-07T08:43:49;2.22;;;1.48;;
15764;SDS011;7983;50.744;7.086;2023-05-07T08:46:20;2.28;;;1.52;;
15764;SDS011;7983;50.744;7.086;2023-05-07T08:48:49;2.70;;;2.10;;
15764;SDS011;7983;50.744;7.086;2023-05-07T08:51:20;2.28;;;1.80;;
15764;SDS011;7983;50.744;7.086;2023-05-07T08:53:47;2.15;;;1.95;;
15764;SDS011;7983;50.744;7.086;2023-05-07T08:56:14;2.55;;;1.90;;
15764;SDS011;7983;50.744;7.086;2023-05-07T08:58:40;2.38;;;1.83;;
15764;SDS011;7983;50.744;7.086;2023-05-07T09:01:12;1.83;;;1.63;;
15764;SDS011;7983;50.744;7.086;2023-05-07T09:03:39;2.40;;;1.77;;
15764;SDS011;7983;50.744;7.086;2023-05-07T09:06:08;1.80;;;1.60;;
15764;SDS011;7983;50.744;7.086;2023-05-07T09:08:33;2.03;;;1.83;;
15764;SDS011;7983;50.744;7.086;2023-05-07T09:11:00;2.38;;;1.67;;
15764;SDS011;7983;50.744;7.086;2023-05-07T09:13:27;1.67;;;1.50;;
15764;SDS011;7983;50.744;7.086;2023-05-07T09:15:55;1.65;;;1.45;;
15764;SDS011;7983;50.744;7.086;2023-05-07T09:18:24;2.42;;;1.98;;
15764;SDS011;7983;50.744;7.086;2023-05-07T09:20:50;2.35;;;1.70;;
15764;SDS011;7983;50.744;7.086;2023-05-07T09:23:23;2.78;;;2.28;;
15764;SDS011;7983;50.744;7.086;2023-05-07T09:25:49;2.15;;;1.85;;
15764;SDS011;7983;50.744;7.086;2023-05-07T09:28:15;2.08;;;1.88;;
15764;SDS011;7983;50.744;7.086;2023-05-07T09:30:40;2.17;;;1.88;;
15764;SDS011;7983;50.744;7.086;2023-05-07T09:33:08;2.53;;;1.90;;
15764;SDS011;7983;50.744;7.086;2023-05-07T09:35:34;2.70;;;1.88;;
15764;SDS011;7983;50.744;7.086;2023-05-07T09:38:00;1.95;;;1.58;;
15764;SDS011;7983;50.744;7.086;2023-05-07T09:40:29;1.52;;;1.40;;
15764;SDS011;7983;50.744;7.086;2023-05-07T09:42:56;2.25;;;1.48;;
15764;SDS011;7983;50.744;7.086;2023-05-07T09:45:28;2.80;;;1.50;;
15764;SDS011;7983;50.744;7.086;2023-05-07T09:47:59;1.60;;;1.45;;
15764;SDS011;7983;50.744;7.086;2023-05-07T09:50:30;1.48;;;1.35;;
15764;SDS011;7983;50.744;7.086;2023-05-07T09:53:03;2.05;;;1.67;;
15764;SDS011;7983;50.744;7.086;2023-05-07T09:55:29;4.85;;;1.67;;
15764;SDS011;7983;50.744;7.086;2023-05-07T09:57:56;1.77;;;1.67;;
15764;SDS011;7983;50.744;7.086;2023-05-07T10:00:23;3.08;;;1.50;;
15764;SDS011;7983;50.744;7.086;2023-05-07T10:02:53;2.50;;;1.52;;
15764;SDS011;7983;50.744;7.086;2023-05-07T10:05:22;1.80;;;1.50;;
15764;SDS011;7983;50.744;7.086;2023-05-07T10:07:48;2.20;;;1.33;;
15764;SDS011;7983;50.744;7.086;2023-05-07T10:10:14;2.85;;;1.63;;
15764;SDS011;7983;50.744;7.086;2023-05-07T10:12:42;1.80;;;1.63;;
15764;SDS011;7983;50.744;7.086;2023-05-07T10:15:11;1.48;;;1.38;;
15764;SDS011;7983;50.744;7.086;2023-05-07T10:17:37;1.50;;;1.40;;
15764;SDS011;7983;50.744;7.086;2023-05-07T10:20:09;1.52;;;1.42;;
15764;SDS011;7983;50.744;7.086;2023-05-07T10:22:39;2.35;;;1.70;;
15764;SDS011;7983;50.744;7.086;2023-05-07T10:25:16;2.00;;;1.60;;
15764;SDS011;7983;50.744;7.086;2023-05-07T10:27:48;2.70;;;2.00;;
15764;SDS011;7983;50.744;7.086;2023-05-07T10:33:06;1.77;;;1.50;;
15764;SDS011;7983;50.744;7.086;2023-05-07T10:35:38;1.48;;;1.38;;
15764;SDS011;7983;50.744;7.086;2023-05-07T10:38:12;1.80;;;1.40;;
15764;SDS011;7983;50.744;7.086;2023-05-07T10:40:38;1.92;;;1.52;;
15764;SDS011;7983;50.744;7.086;2023-05-07T10:43:04;1.60;;;1.50;;
15764;SDS011;7983;50.744;7.086;2023-05-07T10:45:35;2.42;;;1.63;;
15764;SDS011;7983;50.744;7.086;2023-05-07T10:48:11;1.50;;;1.40;;
15764;SDS011;7983;50.744;7.086;2023-05-07T10:50:40;1.30;;;1.20;;
15764;SDS011;7983;50.744;7.086;2023-05-07T10:55:45;1.50;;;1.40;;
15764;SDS011;7983;50.744;7.086;2023-05-07T10:58:46;1.70;;;1.30;;
15764;SDS011;7983;50.744;7.086;2023-05-07T11:01:07;1.30;;;1.20;;
15764;SDS011;7983;50.744;7.086;2023-05-07T11:03:36;1.60;;;1.35;;
15764;SDS011;7983;50.744;7.086;2023-05-07T11:10:06;1.50;;;1.40;;
15764;SDS011;7983;50.744;7.086;2023-05-07T11:17:32;1.33;;;1.23;;
15764;SDS011;7983;50.744;7.086;2023-05-07T11:20:17;1.23;;;1.10;;
15764;SDS011;7983;50.744;7.086;2023-05-07T11:22:47;1.67;;;1.17;;
15764;SDS011;7983;50.744;7.086;2023-05-07T11:25:19;1.45;;;1.30;;
15764;SDS011;7983;50.744;7.086;2023-05-07T11:27:49;1.35;;;1.10;;
15764;SDS011;7983;50.744;7.086;2023-05-07T11:30:20;2.30;;;1.25;;
15764;SDS011;7983;50.744;7.086;2023-05-07T11:32:47;1.33;;;1.15;;
15764;SDS011;7983;50.744;7.086;2023-05-07T11:35:13;1.27;;;1.17;;
15764;SDS011;7983;50.744;7.086;2023-05-07T11:37:43;1.38;;;1.25;;
15764;SDS011;7983;50.744;7.086;2023-05-07T11:40:09;2.20;;;1.50;;
15764;SDS011;7983;50.744;7.086;2023-05-07T11:42:38;1.80;;;1.30;;
15764;SDS011;7983;50.744;7.086;2023-05-07T11:45:05;1.30;;;1.20;;
15764;SDS011;7983;50.744;7.086;2023-05-07T11:47:32;2.20;;;1.33;;
15764;SDS011;7983;50.744;7.086;2023-05-07T11:50:04;1.63;;;1.30;;
15764;SDS011;7983;50.744;7.086;2023-05-07T11:52:36;1.40;;;1.30;;
15764;SDS011;7983;50.744;7.086;2023-05-07T11:55:01;1.65;;;1.23;;
15764;SDS011;7983;50.744;7.086;2023-05-07T11:57:32;1.40;;;1.15;;
15764;SDS011;7983;50.744;7.086;2023-05-07T11:59:59;1.10;;;1.00;;
15764;SDS011;7983;50.744;7.086;2023-05-07T12:02:27;2.15;;;1.10;;
15764;SDS011;7983;50.744;7.086;2023-05-07T12:04:54;1.38;;;1.08;;
15764;SDS011;7983;50.744;7.086;2023-05-07T12:07:23;2.53;;;1.23;;
15764;SDS011;7983;50.744;7.086;2023-05-07T12:09:49;1.38;;;1.10;;
15764;SDS011;7983;50.744;7.086;2023-05-07T12:12:15;1.38;;;1.10;;
15764;SDS011;7983;50.744;7.086;2023-05-07T12:14:42;1.48;;;1.30;;
15764;SDS011;7983;50.744;7.086;2023-05-07T12:17:10;1.80;;;1.25;;
15764;SDS011;7983;50.744;7.086;2023-05-07T12:19:36;1.27;;;1.05;;
15764;SDS011;7983;50.744;7.086;2023-05-07T12:22:11;1.17;;;1.02;;
15764;SDS011;7983;50.744;7.086;2023-05-07T12:24:47;1.40;;;1.00;;
15764;SDS011;7983;50.744;7.086;2023-05-07T12:27:15;1.30;;;1.20;;
15764;SDS011;7983;50.744;7.086;2023-05-07T12:29:48;1.38;;;1.23;;
15764;SDS011;7983;50.744;7.086;2023-05-07T12:32:17;1.58;;;1.10;;
15764;SDS011;7983;50.744;7.086;2023-05-07T12:34:44;1.30;;;1.20;;
15764;SDS011;7983;50.744;7.086;2023-05-07T12:37:11;2.53;;;1.08;;
15764;SDS011;7983;50.744;7.086;2023-05-07T12:39:37;1.38;;;1.13;;
15764;SDS011;7983;50.744;7.086;2023-05-07T12:42:04;1.38;;;1.20;;
15764;SDS011;7983;50.744;7.086;2023-05-07T12:44:31;1.20;;;1.00;;
15764;SDS011;7983;50.744;7.086;2023-05-07T12:47:00;1.58;;;1.23;;
15764;SDS011;7983;50.744;7.086;2023-05-07T12:49:29;1.95;;;1.23;;
15764;SDS011;7983;50.744;7.086;2023-05-07T12:51:55;3.05;;;1.15;;
15764;SDS011;7983;50.744;7.086;2023-05-07T12:54:30;1.52;;;1.25;;
15764;SDS011;7983;50.744;7.086;2023-05-07T12:57:03;1.50;;;1.40;;
15764;SDS011;7983;50.744;7.086;2023-05-07T13:02:05;2.67;;;1.30;;
15764;SDS011;7983;50.744;7.086;2023-05-07T13:04:33;1.73;;;1.27;;
15764;SDS011;7983;50.744;7.086;2023-05-07T13:06:59;1.48;;;1.38;;
15764;SDS011;7983;50.744;7.086;2023-05-07T13:09:28;1.35;;;1.25;;
15764;SDS011;7983;50.744;7.086;2023-05-07T13:11:54;1.80;;;1.40;;
15764;SDS011;7983;50.744;7.086;2023-05-07T13:14:20;1.77;;;1.40;;
15764;SDS011;7983;50.744;7.086;2023-05-07T13:16:46;2.00;;;1.80;;
15764;SDS011;7983;50.744;7.086;2023-05-07T13:19:15;10.98;;;9.88;;
15764;SDS011;7983;50.744;7.086;2023-05-07T13:21:42;14.63;;;12.98;;
15764;SDS011;7983;50.744;7.086;2023-05-07T13:24:08;6.07;;;5.30;;
15764;SDS011;7983;50.744;7.086;2023-05-07T13:26:36;3.85;;;3.40;;
15764;SDS011;7983;50.744;7.086;2023-05-07T13:29:01;3.50;;;2.90;;
15764;SDS011;7983;50.744;7.086;2023-05-07T13:31:30;3.22;;;2.63;;
15764;SDS011;7983;50.744;7.086;2023-05-07T13:33:58;2.90;;;2.35;;
15764;SDS011;7983;50.744;7.086;2023-05-07T13:36:24;2.72;;;2.00;;
15764;SDS011;7983;50.744;7.086;2023-05-07T13:38:52;2.35;;;1.95;;
15764;SDS011;7983;50.744;7.086;2023-05-07T13:41:20;2.75;;;1.70;;
15764;SDS011;7983;50.744;7.086;2023-05-07T13:43:46;2.15;;;1.65;;
15764;SDS011;7983;50.744;7.086;2023-05-07T13:46:12;3.08;;;1.85;;
15764;SDS011;7983;50.744;7.086;2023-05-07T13:48:39;2.00;;;1.60;;
15764;SDS011;7983;50.744;7.086;2023-05-07T13:51:05;1.60;;;1.45;;
15764;SDS011;7983;50.744;7.086;2023-05-07T13:53:33;2.25;;;1.60;;
15764;SDS011;7983;50.744;7.086;2023-05-07T13:55:58;1.88;;;1.30;;
15764;SDS011;7983;50.744;7.086;2023-05-07T13:58:24;2.00;;;1.30;;
15764;SDS011;7983;50.744;7.086;2023-05-07T14:00:50;2.17;;;1.58;;
15764;SDS011;7983;50.744;7.086;2023-05-07T14:03:15;1.90;;;1.60;;
15764;SDS011;7983;50.744;7.086;2023-05-07T14:05:42;1.73;;;1.48;;
15764;SDS011;7983;50.744;7.086;2023-05-07T14:08:12;1.75;;;1.40;;
15764;SDS011;7983;50.744;7.086;2023-05-07T14:10:42;2.67;;;1.40;;
15764;SDS011;7983;50.744;7.086;2023-05-07T14:13:08;1.60;;;1.40;;
15764;SDS011;7983;50.744;7.086;2023-05-07T14:15:33;1.50;;;1.40;;
15764;SDS011;7983;50.744;7.086;2023-05-07T14:17:59;1.30;;;1.20;;
15764;SDS011;7983;50.744;7.086;2023-05-07T14:20:25;2.25;;;1.27;;
15764;SDS011;7983;50.744;7.086;2023-05-07T14:22:51;1.40;;;1.30;;
15764;SDS011;7983;50.744;7.086;2023-05-07T14:25:18;1.90;;;1.15;;
15764;SDS011;7983;50.744;7.086;2023-05-07T14:27:44;1.40;;;1.27;;
15764;SDS011;7983;50.744;7.086;2023-05-07T14:30:10;1.80;;;1.20;;
15764;SDS011;7983;50.744;7.086;2023-05-07T14:32:36;1.33;;;1.20;;
15764;SDS011;7983;50.744;7.086;2023-05-07T14:35:01;1.90;;;1.10;;
15764;SDS011;7983;50.744;7.086;2023-05-07T14:37:29;2.00;;;1.52;;
15764;SDS011;7983;50.744;7.086;2023-05-07T14:39:57;1.77;;;1.40;;
15764;SDS011;7983;50.744;7.086;2023-05-07T14:42:23;2.10;;;1.60;;
15764;SDS011;7983;50.744;7.086;2023-05-07T14:44:51;2.33;;;1.50;;
15764;SDS011;7983;50.744;7.086;2023-05-07T14:47:21;2.00;;;1.35;;
15764;SDS011;7983;50.744;7.086;2023-05-07T14:49:49;1.75;;;1.30;;
15764;SDS011;7983;50.744;7.086;2023-05-07T14:52:15;1.73;;;1.40;;
15764;SDS011;7983;50.744;7.086;2023-05-07T14:54:40;1.70;;;1.05;;
15764;SDS011;7983;50.744;7.086;2023-05-07T14:57:07;2.03;;;1.40;;
15764;SDS011;7983;50.744;7.086;2023-05-07T14:59:38;3.10;;;1.60;;
15764;SDS011;7983;50.744;7.086;2023-05-07T15:02:06;2.35;;;1.40;;
15764;SDS011;7983;50.744;7.086;2023-05-07T15:04:33;2.63;;;1.30;;
15764;SDS011;7983;50.744;7.086;2023-05-07T15:07:01;1.60;;;1.50;;
15764;SDS011;7983;50.744;7.086;2023-05-07T15:09:31;1.88;;;1.38;;
15764;SDS011;7983;50.744;7.086;2023-05-07T15:11:59;1.88;;;1.50;;
15764;SDS011;7983;50.744;7.086;2023-05-07T15:14:28;1.85;;;1.48;;
15764;SDS011;7983;50.744;7.086;2023-05-07T15:16:56;2.22;;;1.67;;
15764;SDS011;7983;50.744;7.086;2023-05-07T15:19:22;2.60;;;1.73;;
15764;SDS011;7983;50.744;7.086;2023-05-07T15:21:50;1.88;;;1.60;;